sensor_id;sensor_type;location;lat;lon;timestamp;temperature;humidity
76936;DHT22;65881;52.438;16.744;2023-01-26T00:01:51;-0.20;99.90
76936;DHT22;65881;52.438;16.744;2023-01-26T00:04:20;-0.20;99.90
76936;DHT22;65881;52.438;16.744;2023-01-26T00:06:46;-0.20;99.90
76936;DHT22;65881;52.438;16.744;2023-01-26T00:09:13;-0.20;99.90
76936;DHT22;65881;52.438;16.744;2023-01-26T00:11:40;-0.20;99.90
76936;DHT22;65881;52.438;16.744;2023-01-26T00:14:06;-0.20;99.90
76936;DHT22;65881;52.438;16.744;2023-01-26T00:16:34;-0.10;99.90
76936;DHT22;65881;52.438;16.744;2023-01-26T00:19:00;-0.10;99.90
76936;DHT22;65881;52.438;16.744;2023-01-26T00:21:29;-0.20;99.90
76936;DHT22;65881;52.438;16.744;2023-01-26T00:23:55;-0.10;99.90
76936;DHT22;65881;52.438;16.744;2023-01-26T00:26:23;-0.20;99.90
76936;DHT22;65881;52.438;16.744;2023-01-26T00:28:50;-0.10;99.90
76936;DHT22;65881;52.438;16.744;2023-01-26T00:31:17;-0.20;99.90
76936;DHT22;65881;52.438;16.744;2023-01-26T00:33:44;-0.10;99.90
76936;DHT22;65881;52.438;16.744;2023-01-26T00:36:11;-0.10;99.90
76936;DHT22;65881;52.438;16.744;2023-01-26T00:38:37;-0.10;99.90
76936;DHT22;65881;52.438;16.744;2023-01-26T00:41:03;-0.10;99.90
76936;DHT22;65881;52.438;16.744;2023-01-26T00:43:32;-0.10;99.90
76936;DHT22;65881;52.438;16.744;2023-01-26T00:45:58;-0.10;99.90
76936;DHT22;65881;52.438;16.744;2023-01-26T00:48:23;-0.10;99.90
76936;DHT22;65881;52.438;16.744;2023-01-26T00:50:50;-0.10;99.90
76936;DHT22;65881;52.438;16.744;2023-01-26T00:53:15;-0.20;99.90
76936;DHT22;65881;52.438;16.744;2023-01-26T00:55:54;-0.10;99.90
76936;DHT22;65881;52.438;16.744;2023-01-26T00:58:34;-0.20;99.90
76936;DHT22;65881;52.438;16.744;2023-01-26T01:01:06;-0.20;99.90
76936;DHT22;65881;52.438;16.744;2023-01-26T01:03:32;-0.20;99.90
76936;DHT22;65881;52.438;16.744;2023-01-26T01:05:58;-0.20;99.90
76936;DHT22;65881;52.438;16.744;2023-01-26T01:08:24;-0.20;99.90
76936;DHT22;65881;52.438;16.744;2023-01-26T01:10:50;-0.20;99.90
76936;DHT22;65881;52.438;16.744;2023-01-26T01:13:26;-0.20;99.90
76936;DHT22;65881;52.438;16.744;2023-01-26T01:15:52;-0.20;99.90
76936;DHT22;65881;52.438;16.744;2023-01-26T01:18:20;-0.20;99.90
76936;DHT22;65881;52.438;16.744;2023-01-26T01:20:49;-0.20;99.90
76936;DHT22;65881;52.438;16.744;2023-01-26T01:23:17;-0.20;99.90
76936;DHT22;65881;52.438;16.744;2023-01-26T01:25:43;-0.20;99.90
76936;DHT22;65881;52.438;16.744;2023-01-26T01:28:10;-0.20;99.90
76936;DHT22;65881;52.438;16.744;2023-01-26T01:30:46;-0.20;99.90
76936;DHT22;65881;52.438;16.744;2023-01-26T01:33:22;-0.20;99.90
76936;DHT22;65881;52.438;16.744;2023-01-26T01:35:58;-0.20;99.90
76936;DHT22;65881;52.438;16.744;2023-01-26T01:38:24;-0.20;99.90
76936;DHT22;65881;52.438;16.744;2023-01-26T01:40:51;-0.20;99.90
76936;DHT22;65881;52.438;16.744;2023-01-26T01:43:36;-0.20;99.90
76936;DHT22;65881;52.438;16.744;2023-01-26T01:46:26;-0.20;99.90
76936;DHT22;65881;52.438;16.744;2023-01-26T01:49:15;-0.20;99.90
76936;DHT22;65881;52.438;16.744;2023-01-26T01:54:20;-0.10;99.90
76936;DHT22;65881;52.438;16.744;2023-01-26T01:56:50;-0.10;99.90
76936;DHT22;65881;52.438;16.744;2023-01-26T01:59:18;-0.10;99.90
76936;DHT22;65881;52.438;16.744;2023-01-26T02:01:49;-0.10;99.90
76936;DHT22;65881;52.438;16.744;2023-01-26T02:04:28;-0.20;99.90
76936;DHT22;65881;52.438;16.744;2023-01-26T02:06:59;-0.20;99.90
76936;DHT22;65881;52.438;16.744;2023-01-26T02:09:37;-0.20;99.90
76936;DHT22;65881;52.438;16.744;2023-01-26T02:12:26;-0.20;99.90
76936;DHT22;65881;52.438;16.744;2023-01-26T02:14:54;-0.10;99.90
76936;DHT22;65881;52.438;16.744;2023-01-26T02:17:27;-0.20;99.90
76936;DHT22;65881;52.438;16.744;2023-01-26T02:22:58;-0.20;99.90
76936;DHT22;65881;52.438;16.744;2023-01-26T02:25:42;-0.20;99.90
76936;DHT22;65881;52.438;16.744;2023-01-26T02:28:12;-0.20;99.90
76936;DHT22;65881;52.438;16.744;2023-01-26T02:30:37;-0.20;99.90
76936;DHT22;65881;52.438;16.744;2023-01-26T02:35:44;-0.20;99.90
76936;DHT22;65881;52.438;16.744;2023-01-26T02:38:10;-0.20;99.90
76936;DHT22;65881;52.438;16.744;2023-01-26T02:40:53;-0.20;99.90
76936;DHT22;65881;52.438;16.744;2023-01-26T02:43:20;-0.20;99.90
76936;DHT22;65881;52.438;16.744;2023-01-26T02:45:48;-0.20;99.90
76936;DHT22;65881;52.438;16.744;2023-01-26T02:48:14;-0.20;99.90
76936;DHT22;65881;52.438;16.744;2023-01-26T02:50:59;-0.20;99.90
76936;DHT22;65881;52.438;16.744;2023-01-26T02:53:25;-0.20;99.90
76936;DHT22;65881;52.438;16.744;2023-01-26T02:56:00;-0.20;99.90
76936;DHT22;65881;52.438;16.744;2023-01-26T02:58:42;-0.20;99.90
76936;DHT22;65881;52.438;16.744;2023-01-26T03:01:14;-0.10;99.90
76936;DHT22;65881;52.438;16.744;2023-01-26T03:03:40;-0.10;99.90
76936;DHT22;65881;52.438;16.744;2023-01-26T03:06:11;-0.10;99.90
76936;DHT22;65881;52.438;16.744;2023-01-26T03:08:52;-0.10;99.90
76936;DHT22;65881;52.438;16.744;2023-01-26T03:11:21;-0.20;99.90
76936;DHT22;65881;52.438;16.744;2023-01-26T03:13:47;-0.20;99.90
76936;DHT22;65881;52.438;16.744;2023-01-26T03:16:13;-0.20;99.90
76936;DHT22;65881;52.438;16.744;2023-01-26T03:18:42;-0.20;99.90
76936;DHT22;65881;52.438;16.744;2023-01-26T03:21:26;-0.20;99.90
76936;DHT22;65881;52.438;16.744;2023-01-26T03:24:12;-0.20;99.90
76936;DHT22;65881;52.438;16.744;2023-01-26T03:27:00;-0.20;99.90
76936;DHT22;65881;52.438;16.744;2023-01-26T03:29:45;-0.20;99.90
76936;DHT22;65881;52.438;16.744;2023-01-26T03:32:11;-0.20;99.90
76936;DHT22;65881;52.438;16.744;2023-01-26T03:34:36;-0.20;99.90
76936;DHT22;65881;52.438;16.744;2023-01-26T03:37:03;-0.20;99.90
76936;DHT22;65881;52.438;16.744;2023-01-26T03:39:29;-0.20;99.90
76936;DHT22;65881;52.438;16.744;2023-01-26T03:42:13;-0.20;99.90
76936;DHT22;65881;52.438;16.744;2023-01-26T03:44:57;-0.20;99.90
76936;DHT22;65881;52.438;16.744;2023-01-26T03:47:41;-0.20;99.90
76936;DHT22;65881;52.438;16.744;2023-01-26T03:50:27;-0.10;99.90
76936;DHT22;65881;52.438;16.744;2023-01-26T03:53:16;-0.20;99.90
76936;DHT22;65881;52.438;16.744;2023-01-26T03:56:01;-0.20;99.90
76936;DHT22;65881;52.438;16.744;2023-01-26T03:58:47;-0.20;99.90
76936;DHT22;65881;52.438;16.744;2023-01-26T04:01:13;-0.20;99.90
76936;DHT22;65881;52.438;16.744;2023-01-26T04:03:49;-0.20;99.90
76936;DHT22;65881;52.438;16.744;2023-01-26T04:06:35;-0.20;99.90
76936;DHT22;65881;52.438;16.744;2023-01-26T04:09:19;-0.20;99.90
76936;DHT22;65881;52.438;16.744;2023-01-26T04:11:46;-0.20;99.90
76936;DHT22;65881;52.438;16.744;2023-01-26T04:14:13;-0.20;99.90
76936;DHT22;65881;52.438;16.744;2023-01-26T04:16:58;-0.20;99.90
76936;DHT22;65881;52.438;16.744;2023-01-26T04:19:43;-0.20;99.90
76936;DHT22;65881;52.438;16.744;2023-01-26T04:22:27;-0.20;99.90
76936;DHT22;65881;52.438;16.744;2023-01-26T04:24:53;-0.20;99.90
76936;DHT22;65881;52.438;16.744;2023-01-26T04:27:19;-0.20;99.90
76936;DHT22;65881;52.438;16.744;2023-01-26T04:29:45;-0.20;99.90
76936;DHT22;65881;52.438;16.744;2023-01-26T04:32:11;-0.20;99.90
76936;DHT22;65881;52.438;16.744;2023-01-26T04:34:36;-0.10;99.90
76936;DHT22;65881;52.438;16.744;2023-01-26T04:37:02;-0.20;99.90
76936;DHT22;65881;52.438;16.744;2023-01-26T04:39:42;-0.20;99.90
76936;DHT22;65881;52.438;16.744;2023-01-26T04:42:14;-0.10;99.90
76936;DHT22;65881;52.438;16.744;2023-01-26T04:44:43;-0.20;99.90
76936;DHT22;65881;52.438;16.744;2023-01-26T04:47:09;-0.20;99.90
76936;DHT22;65881;52.438;16.744;2023-01-26T04:49:34;-0.20;99.90
76936;DHT22;65881;52.438;16.744;2023-01-26T04:52:00;-0.10;99.90
76936;DHT22;65881;52.438;16.744;2023-01-26T04:54:26;-0.20;99.90
76936;DHT22;65881;52.438;16.744;2023-01-26T04:56:51;-0.20;99.90
76936;DHT22;65881;52.438;16.744;2023-01-26T04:59:23;-0.20;99.90
76936;DHT22;65881;52.438;16.744;2023-01-26T05:01:48;-0.20;99.90
76936;DHT22;65881;52.438;16.744;2023-01-26T05:04:14;-0.10;99.90
76936;DHT22;65881;52.438;16.744;2023-01-26T05:06:40;-0.10;99.90
76936;DHT22;65881;52.438;16.744;2023-01-26T05:09:06;-0.20;99.90
76936;DHT22;65881;52.438;16.744;2023-01-26T05:11:33;-0.20;99.90
76936;DHT22;65881;52.438;16.744;2023-01-26T05:13:59;-0.20;99.90
76936;DHT22;65881;52.438;16.744;2023-01-26T05:16:25;-0.20;99.90
76936;DHT22;65881;52.438;16.744;2023-01-26T05:18:52;-0.20;99.90
76936;DHT22;65881;52.438;16.744;2023-01-26T05:21:18;-0.10;99.90
76936;DHT22;65881;52.438;16.744;2023-01-26T05:23:44;-0.20;99.90
76936;DHT22;65881;52.438;16.744;2023-01-26T05:26:25;-0.20;99.90
76936;DHT22;65881;52.438;16.744;2023-01-26T05:28:51;-0.20;99.90
76936;DHT22;65881;52.438;16.744;2023-01-26T05:31:18;-0.20;99.90
76936;DHT22;65881;52.438;16.744;2023-01-26T05:33:44;-0.20;99.90
76936;DHT22;65881;52.438;16.744;2023-01-26T05:36:09;-0.20;99.90
76936;DHT22;65881;52.438;16.744;2023-01-26T05:38:35;-0.20;99.90
76936;DHT22;65881;52.438;16.744;2023-01-26T05:41:01;-0.20;99.90
76936;DHT22;65881;52.438;16.744;2023-01-26T05:43:27;-0.20;99.90
76936;DHT22;65881;52.438;16.744;2023-01-26T05:45:52;-0.20;99.90
76936;DHT22;65881;52.438;16.744;2023-01-26T05:48:34;-0.20;99.90
76936;DHT22;65881;52.438;16.744;2023-01-26T05:50:59;-0.20;99.90
76936;DHT22;65881;52.438;16.744;2023-01-26T05:53:28;-0.20;99.90
76936;DHT22;65881;52.438;16.744;2023-01-26T05:55:53;-0.20;99.90
76936;DHT22;65881;52.438;16.744;2023-01-26T05:58:19;-0.10;99.90
76936;DHT22;65881;52.438;16.744;2023-01-26T06:00:45;-0.10;99.90
76936;DHT22;65881;52.438;16.744;2023-01-26T06:03:14;-0.20;99.90
76936;DHT22;65881;52.438;16.744;2023-01-26T06:05:39;-0.20;99.90
76936;DHT22;65881;52.438;16.744;2023-01-26T06:08:05;-0.20;99.90
76936;DHT22;65881;52.438;16.744;2023-01-26T06:10:31;-0.20;99.90
76936;DHT22;65881;52.438;16.744;2023-01-26T06:13:12;-0.20;99.90
76936;DHT22;65881;52.438;16.744;2023-01-26T06:15:47;-0.10;99.90
76936;DHT22;65881;52.438;16.744;2023-01-26T06:18:12;-0.20;99.90
76936;DHT22;65881;52.438;16.744;2023-01-26T06:20:38;-0.20;99.90
76936;DHT22;65881;52.438;16.744;2023-01-26T06:23:13;0.50;99.90
76936;DHT22;65881;52.438;16.744;2023-01-26T06:25:39;0.40;99.90
76936;DHT22;65881;52.438;16.744;2023-01-26T06:28:05;0.20;99.90
76936;DHT22;65881;52.438;16.744;2023-01-26T06:30:32;0.10;99.90
76936;DHT22;65881;52.438;16.744;2023-01-26T06:33:01;0.00;99.90
76936;DHT22;65881;52.438;16.744;2023-01-26T06:35:27;0.00;99.90
76936;DHT22;65881;52.438;16.744;2023-01-26T06:37:52;-0.10;99.90
76936;DHT22;65881;52.438;16.744;2023-01-26T06:40:24;-0.10;99.90
76936;DHT22;65881;52.438;16.744;2023-01-26T06:42:50;-0.10;99.90
76936;DHT22;65881;52.438;16.744;2023-01-26T06:45:16;-0.10;99.90
76936;DHT22;65881;52.438;16.744;2023-01-26T06:47:49;-0.10;99.90
76936;DHT22;65881;52.438;16.744;2023-01-26T06:50:18;-0.10;99.90
76936;DHT22;65881;52.438;16.744;2023-01-26T06:53:29;-0.10;99.90
76936;DHT22;65881;52.438;16.744;2023-01-26T06:56:20;-0.10;99.90
76936;DHT22;65881;52.438;16.744;2023-01-26T06:58:58;-0.10;99.90
76936;DHT22;65881;52.438;16.744;2023-01-26T07:01:25;-0.20;99.90
76936;DHT22;65881;52.438;16.744;2023-01-26T07:03:52;-0.20;99.90
76936;DHT22;65881;52.438;16.744;2023-01-26T07:06:18;-0.20;99.90
76936;DHT22;65881;52.438;16.744;2023-01-26T07:08:56;-0.20;99.90
76936;DHT22;65881;52.438;16.744;2023-01-26T07:11:22;-0.10;99.90
76936;DHT22;65881;52.438;16.744;2023-01-26T07:13:58;-0.10;99.90
76936;DHT22;65881;52.438;16.744;2023-01-26T07:16:25;-0.10;99.90
76936;DHT22;65881;52.438;16.744;2023-01-26T07:18:52;-0.10;99.90
76936;DHT22;65881;52.438;16.744;2023-01-26T07:21:19;-0.10;99.90
76936;DHT22;65881;52.438;16.744;2023-01-26T07:23:46;-0.10;99.90
76936;DHT22;65881;52.438;16.744;2023-01-26T07:26:14;-0.10;99.90
76936;DHT22;65881;52.438;16.744;2023-01-26T07:28:41;-0.10;99.90
76936;DHT22;65881;52.438;16.744;2023-01-26T07:31:08;-0.10;99.90
76936;DHT22;65881;52.438;16.744;2023-01-26T07:33:41;-0.10;99.90
76936;DHT22;65881;52.438;16.744;2023-01-26T07:36:07;-0.10;99.90
76936;DHT22;65881;52.438;16.744;2023-01-26T07:38:45;-0.10;99.90
76936;DHT22;65881;52.438;16.744;2023-01-26T07:41:12;-0.10;99.90
76936;DHT22;65881;52.438;16.744;2023-01-26T07:43:38;-0.10;99.90
76936;DHT22;65881;52.438;16.744;2023-01-26T07:46:04;0.00;99.90
76936;DHT22;65881;52.438;16.744;2023-01-26T07:48:39;0.00;99.90
76936;DHT22;65881;52.438;16.744;2023-01-26T07:51:15;-0.10;99.90
76936;DHT22;65881;52.438;16.744;2023-01-26T07:53:47;-0.10;99.90
76936;DHT22;65881;52.438;16.744;2023-01-26T07:56:23;-0.20;99.90
76936;DHT22;65881;52.438;16.744;2023-01-26T07:58:54;-0.20;99.90
76936;DHT22;65881;52.438;16.744;2023-01-26T08:01:23;-0.20;99.90
76936;DHT22;65881;52.438;16.744;2023-01-26T08:03:52;-0.30;99.90
76936;DHT22;65881;52.438;16.744;2023-01-26T08:06:24;-0.20;99.90
76936;DHT22;65881;52.438;16.744;2023-01-26T08:08:57;-0.20;99.90
76936;DHT22;65881;52.438;16.744;2023-01-26T08:11:38;-0.20;99.90
76936;DHT22;65881;52.438;16.744;2023-01-26T08:14:04;-0.20;99.90
76936;DHT22;65881;52.438;16.744;2023-01-26T08:16:30;-0.20;99.90
76936;DHT22;65881;52.438;16.744;2023-01-26T08:18:55;-0.20;99.90
76936;DHT22;65881;52.438;16.744;2023-01-26T08:21:33;-0.20;99.90
76936;DHT22;65881;52.438;16.744;2023-01-26T08:23:59;-0.10;99.90
76936;DHT22;65881;52.438;16.744;2023-01-26T08:26:32;-0.10;99.90
76936;DHT22;65881;52.438;16.744;2023-01-26T08:29:01;-0.10;99.90
76936;DHT22;65881;52.438;16.744;2023-01-26T08:31:39;-0.10;99.90
76936;DHT22;65881;52.438;16.744;2023-01-26T08:34:04;-0.10;99.90
76936;DHT22;65881;52.438;16.744;2023-01-26T08:36:32;-0.10;99.90
76936;DHT22;65881;52.438;16.744;2023-01-26T08:48:48;-0.10;99.90
76936;DHT22;65881;52.438;16.744;2023-01-26T08:51:20;0.00;99.90
76936;DHT22;65881;52.438;16.744;2023-01-26T08:53:46;0.00;99.90
76936;DHT22;65881;52.438;16.744;2023-01-26T08:56:13;-0.10;99.90
76936;DHT22;65881;52.438;16.744;2023-01-26T08:58:45;-0.10;99.90
76936;DHT22;65881;52.438;16.744;2023-01-26T09:01:18;0.00;99.90
76936;DHT22;65881;52.438;16.744;2023-01-26T09:03:53;0.00;99.90
76936;DHT22;65881;52.438;16.744;2023-01-26T09:06:21;0.00;99.90
76936;DHT22;65881;52.438;16.744;2023-01-26T09:08:46;0.00;99.90
76936;DHT22;65881;52.438;16.744;2023-01-26T09:11:12;0.00;99.90
76936;DHT22;65881;52.438;16.744;2023-01-26T09:13:39;0.00;99.90
76936;DHT22;65881;52.438;16.744;2023-01-26T09:16:21;0.00;99.90
76936;DHT22;65881;52.438;16.744;2023-01-26T09:18:52;0.10;99.90
76936;DHT22;65881;52.438;16.744;2023-01-26T09:21:18;0.20;99.90
76936;DHT22;65881;52.438;16.744;2023-01-26T09:23:44;0.20;99.90
76936;DHT22;65881;52.438;16.744;2023-01-26T09:26:10;0.20;99.90
76936;DHT22;65881;52.438;16.744;2023-01-26T09:28:35;0.20;99.90
76936;DHT22;65881;52.438;16.744;2023-01-26T09:33:54;0.00;99.90
76936;DHT22;65881;52.438;16.744;2023-01-26T09:36:19;0.10;99.90
76936;DHT22;65881;52.438;16.744;2023-01-26T09:38:45;0.20;99.90
76936;DHT22;65881;52.438;16.744;2023-01-26T09:44:32;0.30;99.90
76936;DHT22;65881;52.438;16.744;2023-01-26T09:47:29;0.30;99.60
76936;DHT22;65881;52.438;16.744;2023-01-26T09:52:52;0.20;99.10
76936;DHT22;65881;52.438;16.744;2023-01-26T09:55:28;0.20;99.70
76936;DHT22;65881;52.438;16.744;2023-01-26T09:58:30;0.10;99.80
76936;DHT22;65881;52.438;16.744;2023-01-26T10:01:26;0.10;99.90
76936;DHT22;65881;52.438;16.744;2023-01-26T10:04:26;0.20;99.90
76936;DHT22;65881;52.438;16.744;2023-01-26T10:07:18;0.30;99.90
76936;DHT22;65881;52.438;16.744;2023-01-26T10:09:51;0.30;99.50
76936;DHT22;65881;52.438;16.744;2023-01-26T10:12:28;0.30;99.10
76936;DHT22;65881;52.438;16.744;2023-01-26T10:17:32;0.30;98.90
76936;DHT22;65881;52.438;16.744;2023-01-26T10:20:06;0.30;99.00
76936;DHT22;65881;52.438;16.744;2023-01-26T10:22:49;0.20;99.20
76936;DHT22;65881;52.438;16.744;2023-01-26T10:25:32;0.20;99.00
76936;DHT22;65881;52.438;16.744;2023-01-26T10:28:28;0.10;99.30
76936;DHT22;65881;52.438;16.744;2023-01-26T10:31:14;0.10;99.60
76936;DHT22;65881;52.438;16.744;2023-01-26T10:36:15;0.10;99.80
76936;DHT22;65881;52.438;16.744;2023-01-26T10:38:49;0.20;99.70
76936;DHT22;65881;52.438;16.744;2023-01-26T10:41:22;0.30;99.70
76936;DHT22;65881;52.438;16.744;2023-01-26T10:46:40;0.20;99.60
76936;DHT22;65881;52.438;16.744;2023-01-26T10:52:20;0.20;99.80
76936;DHT22;65881;52.438;16.744;2023-01-26T10:55:08;0.20;99.30
76936;DHT22;65881;52.438;16.744;2023-01-26T10:57:43;0.20;98.90
76936;DHT22;65881;52.438;16.744;2023-01-26T11:02:52;0.20;98.40
76936;DHT22;65881;52.438;16.744;2023-01-26T11:05:40;0.20;98.50
76936;DHT22;65881;52.438;16.744;2023-01-26T11:08:31;0.20;98.40
76936;DHT22;65881;52.438;16.744;2023-01-26T11:11:30;0.20;98.60
76936;DHT22;65881;52.438;16.744;2023-01-26T11:14:21;0.20;98.60
76936;DHT22;65881;52.438;16.744;2023-01-26T11:17:13;0.20;98.60
76936;DHT22;65881;52.438;16.744;2023-01-26T11:51:50;0.10;98.70
76936;DHT22;65881;52.438;16.744;2023-01-26T12:02:39;0.20;98.40
76936;DHT22;65881;52.438;16.744;2023-01-26T12:05:26;0.20;98.50
76936;DHT22;65881;52.438;16.744;2023-01-26T12:08:09;0.30;98.60
76936;DHT22;65881;52.438;16.744;2023-01-26T12:10:58;0.20;98.00
76936;DHT22;65881;52.438;16.744;2023-01-26T12:13:51;0.20;98.20
76936;DHT22;65881;52.438;16.744;2023-01-26T12:19:04;0.30;97.60
76936;DHT22;65881;52.438;16.744;2023-01-26T12:21:53;0.30;97.30
76936;DHT22;65881;52.438;16.744;2023-01-26T12:27:43;0.20;97.30
76936;DHT22;65881;52.438;16.744;2023-01-26T12:33:30;0.20;96.80
76936;DHT22;65881;52.438;16.744;2023-01-26T12:38:59;0.30;97.20
76936;DHT22;65881;52.438;16.744;2023-01-26T12:42:05;0.30;96.80
76936;DHT22;65881;52.438;16.744;2023-01-26T12:44:38;0.30;96.80
76936;DHT22;65881;52.438;16.744;2023-01-26T12:47:33;0.20;97.00
76936;DHT22;65881;52.438;16.744;2023-01-26T12:53:48;0.20;96.50
76936;DHT22;65881;52.438;16.744;2023-01-26T12:58:39;0.20;96.80
76936;DHT22;65881;52.438;16.744;2023-01-26T13:01:09;0.20;96.80
76936;DHT22;65881;52.438;16.744;2023-01-26T13:03:42;0.10;97.00
76936;DHT22;65881;52.438;16.744;2023-01-26T13:06:26;0.20;97.30
76936;DHT22;65881;52.438;16.744;2023-01-26T13:11:58;0.20;97.10
76936;DHT22;65881;52.438;16.744;2023-01-26T13:27:54;0.20;97.00
76936;DHT22;65881;52.438;16.744;2023-01-26T13:30:46;0.30;97.00
76936;DHT22;65881;52.438;16.744;2023-01-26T13:33:23;0.20;96.90
76936;DHT22;65881;52.438;16.744;2023-01-26T13:35:56;0.30;97.00
76936;DHT22;65881;52.438;16.744;2023-01-26T13:38:41;0.30;97.00
76936;DHT22;65881;52.438;16.744;2023-01-26T13:41:19;0.30;96.80
76936;DHT22;65881;52.438;16.744;2023-01-26T13:44:13;0.30;96.80
76936;DHT22;65881;52.438;16.744;2023-01-26T13:47:05;0.30;96.20
76936;DHT22;65881;52.438;16.744;2023-01-26T13:49:40;0.30;96.40
76936;DHT22;65881;52.438;16.744;2023-01-26T13:52:30;0.20;96.20
76936;DHT22;65881;52.438;16.744;2023-01-26T13:54:59;0.20;96.30
76936;DHT22;65881;52.438;16.744;2023-01-26T13:57:33;0.20;96.20
76936;DHT22;65881;52.438;16.744;2023-01-26T13:59:59;0.20;96.20
76936;DHT22;65881;52.438;16.744;2023-01-26T14:05:26;0.20;95.80
76936;DHT22;65881;52.438;16.744;2023-01-26T14:08:29;0.20;95.90
76936;DHT22;65881;52.438;16.744;2023-01-26T14:10:56;0.20;95.60
76936;DHT22;65881;52.438;16.744;2023-01-26T14:23:00;0.20;95.50
76936;DHT22;65881;52.438;16.744;2023-01-26T14:25:35;0.20;95.40
76936;DHT22;65881;52.438;16.744;2023-01-26T14:28:19;0.20;95.40
76936;DHT22;65881;52.438;16.744;2023-01-26T14:30:51;0.20;95.40
76936;DHT22;65881;52.438;16.744;2023-01-26T14:33:29;0.20;95.20
76936;DHT22;65881;52.438;16.744;2023-01-26T14:36:15;0.20;94.90
76936;DHT22;65881;52.438;16.744;2023-01-26T14:41:31;0.20;95.20
76936;DHT22;65881;52.438;16.744;2023-01-26T14:47:45;0.20;94.90
76936;DHT22;65881;52.438;16.744;2023-01-26T14:50:28;0.20;94.40
76936;DHT22;65881;52.438;16.744;2023-01-26T15:06:16;0.00;95.10
76936;DHT22;65881;52.438;16.744;2023-01-26T15:11:41;0.00;95.90
76936;DHT22;65881;52.438;16.744;2023-01-26T15:21:20;0.00;96.10
76936;DHT22;65881;52.438;16.744;2023-01-26T15:23:56;-0.10;95.90
76936;DHT22;65881;52.438;16.744;2023-01-26T15:26:42;-0.10;96.10
76936;DHT22;65881;52.438;16.744;2023-01-26T15:53:50;-0.20;96.60
76936;DHT22;65881;52.438;16.744;2023-01-26T15:56:41;-0.20;97.10
76936;DHT22;65881;52.438;16.744;2023-01-26T15:59:41;-0.20;96.80
76936;DHT22;65881;52.438;16.744;2023-01-26T16:02:20;-0.20;97.10
76936;DHT22;65881;52.438;16.744;2023-01-26T16:04:46;-0.20;96.50
76936;DHT22;65881;52.438;16.744;2023-01-26T16:07:14;-0.20;96.60
76936;DHT22;65881;52.438;16.744;2023-01-26T16:12:40;-0.20;96.80
76936;DHT22;65881;52.438;16.744;2023-01-26T16:15:41;-0.30;97.10
76936;DHT22;65881;52.438;16.744;2023-01-26T16:18:28;-0.30;97.40
76936;DHT22;65881;52.438;16.744;2023-01-26T16:38:18;-0.40;99.10
76936;DHT22;65881;52.438;16.744;2023-01-26T16:40:53;-0.40;99.40
76936;DHT22;65881;52.438;16.744;2023-01-26T16:43:25;-0.40;99.40
76936;DHT22;65881;52.438;16.744;2023-01-26T16:46:11;-0.40;99.60
76936;DHT22;65881;52.438;16.744;2023-01-26T16:59:06;-0.30;99.70
76936;DHT22;65881;52.438;16.744;2023-01-26T17:01:36;-0.40;99.80
76936;DHT22;65881;52.438;16.744;2023-01-26T17:04:08;-0.40;99.90
76936;DHT22;65881;52.438;16.744;2023-01-26T17:12:47;-0.30;99.30
76936;DHT22;65881;52.438;16.744;2023-01-26T17:15:18;-0.30;99.20
76936;DHT22;65881;52.438;16.744;2023-01-26T17:17:48;-0.40;99.30
76936;DHT22;65881;52.438;16.744;2023-01-26T17:20:17;-0.40;99.30
76936;DHT22;65881;52.438;16.744;2023-01-26T17:22:46;-0.40;99.20
76936;DHT22;65881;52.438;16.744;2023-01-26T17:25:13;-0.40;99.40
76936;DHT22;65881;52.438;16.744;2023-01-26T17:30:17;-0.40;99.40
76936;DHT22;65881;52.438;16.744;2023-01-26T17:35:14;-0.30;98.70
76936;DHT22;65881;52.438;16.744;2023-01-26T17:37:40;-0.30;98.50
76936;DHT22;65881;52.438;16.744;2023-01-26T17:50:11;-0.30;97.80
76936;DHT22;65881;52.438;16.744;2023-01-26T17:55:53;-0.20;97.80
76936;DHT22;65881;52.438;16.744;2023-01-26T17:58:28;-0.20;97.80
76936;DHT22;65881;52.438;16.744;2023-01-26T18:00:57;-0.30;98.10
76936;DHT22;65881;52.438;16.744;2023-01-26T18:03:23;-0.30;98.10
76936;DHT22;65881;52.438;16.744;2023-01-26T18:05:55;-0.30;98.30
76936;DHT22;65881;52.438;16.744;2023-01-26T18:08:26;-0.30;98.40
76936;DHT22;65881;52.438;16.744;2023-01-26T18:10:57;-0.30;98.40
76936;DHT22;65881;52.438;16.744;2023-01-26T18:13:23;-0.30;98.50
76936;DHT22;65881;52.438;16.744;2023-01-26T18:15:51;-0.40;98.40
76936;DHT22;65881;52.438;16.744;2023-01-26T18:18:28;-0.30;98.50
76936;DHT22;65881;52.438;16.744;2023-01-26T18:21:09;-0.40;98.50
76936;DHT22;65881;52.438;16.744;2023-01-26T18:23:35;-0.40;98.70
76936;DHT22;65881;52.438;16.744;2023-01-26T18:26:09;-0.30;98.70
76936;DHT22;65881;52.438;16.744;2023-01-26T18:28:51;-0.30;98.60
76936;DHT22;65881;52.438;16.744;2023-01-26T18:40:08;-0.30;98.70
76936;DHT22;65881;52.438;16.744;2023-01-26T18:42:41;-0.30;98.60
76936;DHT22;65881;52.438;16.744;2023-01-26T18:52:22;-0.40;98.70
76936;DHT22;65881;52.438;16.744;2023-01-26T18:54:48;-0.40;98.80
76936;DHT22;65881;52.438;16.744;2023-01-26T18:57:14;-0.40;98.90
76936;DHT22;65881;52.438;16.744;2023-01-26T18:59:43;-0.40;98.80
76936;DHT22;65881;52.438;16.744;2023-01-26T19:02:13;-0.30;98.90
76936;DHT22;65881;52.438;16.744;2023-01-26T19:04:40;-0.30;98.80
76936;DHT22;65881;52.438;16.744;2023-01-26T19:07:07;-0.30;98.80
76936;DHT22;65881;52.438;16.744;2023-01-26T19:09:37;-0.30;98.90
76936;DHT22;65881;52.438;16.744;2023-01-26T19:12:04;-0.30;98.70
76936;DHT22;65881;52.438;16.744;2023-01-26T19:14:31;-0.30;98.50
76936;DHT22;65881;52.438;16.744;2023-01-26T19:16:57;-0.30;98.60
76936;DHT22;65881;52.438;16.744;2023-01-26T19:19:23;-0.40;98.50
76936;DHT22;65881;52.438;16.744;2023-01-26T19:21:49;-0.40;98.40
76936;DHT22;65881;52.438;16.744;2023-01-26T19:24:15;-0.40;98.60
76936;DHT22;65881;52.438;16.744;2023-01-26T19:26:41;-0.40;98.60
76936;DHT22;65881;52.438;16.744;2023-01-26T19:29:08;-0.40;98.70
76936;DHT22;65881;52.438;16.744;2023-01-26T19:31:35;-0.40;98.70
76936;DHT22;65881;52.438;16.744;2023-01-26T19:34:03;-0.40;98.90
76936;DHT22;65881;52.438;16.744;2023-01-26T19:36:46;-0.40;98.80
76936;DHT22;65881;52.438;16.744;2023-01-26T19:39:38;-0.40;99.00
76936;DHT22;65881;52.438;16.744;2023-01-26T19:42:17;-0.40;98.90
76936;DHT22;65881;52.438;16.744;2023-01-26T19:45:05;-0.40;99.10
76936;DHT22;65881;52.438;16.744;2023-01-26T19:47:39;-0.40;99.00
76936;DHT22;65881;52.438;16.744;2023-01-26T19:50:06;-0.40;99.10
76936;DHT22;65881;52.438;16.744;2023-01-26T19:52:44;-0.50;99.20
76936;DHT22;65881;52.438;16.744;2023-01-26T19:55:10;-0.40;99.40
76936;DHT22;65881;52.438;16.744;2023-01-26T19:57:38;-0.40;99.50
76936;DHT22;65881;52.438;16.744;2023-01-26T20:00:10;-0.40;99.50
76936;DHT22;65881;52.438;16.744;2023-01-26T20:02:39;-0.40;99.40
76936;DHT22;65881;52.438;16.744;2023-01-26T20:05:05;-0.40;99.70
76936;DHT22;65881;52.438;16.744;2023-01-26T20:07:47;-0.40;99.70
76936;DHT22;65881;52.438;16.744;2023-01-26T20:13:28;-0.40;99.90